sensor_id;sensor_type;location;lat;lon;timestamp;P1;durP1;ratioP1;P2;durP2;ratioP2
29568;SDS011;16501;51.462;14.346;2023-07-20T00:00:21;6.63;;;3.58;;
29568;SDS011;16501;51.462;14.346;2023-07-20T00:02:49;4.70;;;3.15;;
29568;SDS011;16501;51.462;14.346;2023-07-20T00:05:15;4.13;;;2.85;;
29568;SDS011;16501;51.462;14.346;2023-07-20T00:07:43;4.47;;;3.13;;
29568;SDS011;16501;51.462;14.346;2023-07-20T00:10:08;5.50;;;3.75;;
29568;SDS011;16501;51.462;14.346;2023-07-20T00:12:33;8.30;;;4.35;;
29568;SDS011;16501;51.462;14.346;2023-07-20T00:14:59;6.90;;;4.10;;
29568;SDS011;16501;51.462;14.346;2023-07-20T00:17:24;14.73;;;4.10;;
29568;SDS011;16501;51.462;14.346;2023-07-20T00:19:49;8.32;;;3.92;;
29568;SDS011;16501;51.462;14.346;2023-07-20T00:22:15;9.73;;;3.38;;
29568;SDS011;16501;51.462;14.346;2023-07-20T00:24:40;11.88;;;4.47;;
29568;SDS011;16501;51.462;14.346;2023-07-20T00:27:05;6.25;;;3.45;;
29568;SDS011;16501;51.462;14.346;2023-07-20T00:29:31;12.30;;;4.22;;
29568;SDS011;16501;51.462;14.346;2023-07-20T00:31:56;6.32;;;3.97;;
29568;SDS011;16501;51.462;14.346;2023-07-20T00:34:21;8.38;;;4.20;;
29568;SDS011;16501;51.462;14.346;2023-07-20T00:36:47;5.25;;;3.25;;
29568;SDS011;16501;51.462;14.346;2023-07-20T00:39:14;8.75;;;4.03;;
29568;SDS011;16501;51.462;14.346;2023-07-20T00:41:39;4.72;;;3.45;;
29568;SDS011;16501;51.462;14.346;2023-07-20T00:44:04;7.38;;;3.85;;
29568;SDS011;16501;51.462;14.346;2023-07-20T00:46:30;6.47;;;3.38;;
29568;SDS011;16501;51.462;14.346;2023-07-20T00:48:57;7.03;;;3.42;;
29568;SDS011;16501;51.462;14.346;2023-07-20T00:51:23;7.30;;;3.35;;
29568;SDS011;16501;51.462;14.346;2023-07-20T00:53:51;9.30;;;3.45;;
29568;SDS011;16501;51.462;14.346;2023-07-20T00:56:16;8.85;;;2.70;;
29568;SDS011;16501;51.462;14.346;2023-07-20T00:58:43;4.53;;;3.50;;
29568;SDS011;16501;51.462;14.346;2023-07-20T01:01:09;8.73;;;3.53;;
29568;SDS011;16501;51.462;14.346;2023-07-20T01:03:34;7.75;;;3.25;;
29568;SDS011;16501;51.462;14.346;2023-07-20T01:06:14;8.55;;;3.85;;
29568;SDS011;16501;51.462;14.346;2023-07-20T01:08:53;6.70;;;3.25;;
29568;SDS011;16501;51.462;14.346;2023-07-20T01:11:29;8.25;;;3.38;;
29568;SDS011;16501;51.462;14.346;2023-07-20T01:13:57;5.72;;;3.20;;
29568;SDS011;16501;51.462;14.346;2023-07-20T01:16:22;6.45;;;2.97;;
29568;SDS011;16501;51.462;14.346;2023-07-20T01:18:48;5.80;;;2.80;;
29568;SDS011;16501;51.462;14.346;2023-07-20T01:21:15;5.47;;;3.22;;
29568;SDS011;16501;51.462;14.346;2023-07-20T01:24:04;8.45;;;3.25;;
29568;SDS011;16501;51.462;14.346;2023-07-20T01:32:29;7.88;;;3.70;;
29568;SDS011;16501;51.462;14.346;2023-07-20T01:34:56;7.28;;;3.42;;
29568;SDS011;16501;51.462;14.346;2023-07-20T01:37:24;7.85;;;4.10;;
29568;SDS011;16501;51.462;14.346;2023-07-20T01:39:53;6.25;;;3.53;;
29568;SDS011;16501;51.462;14.346;2023-07-20T01:42:22;7.03;;;3.70;;
29568;SDS011;16501;51.462;14.346;2023-07-20T01:44:52;8.95;;;3.92;;
29568;SDS011;16501;51.462;14.346;2023-07-20T01:47:18;5.43;;;3.75;;
29568;SDS011;16501;51.462;14.346;2023-07-20T01:49:43;7.03;;;3.90;;
29568;SDS011;16501;51.462;14.346;2023-07-20T01:52:08;6.50;;;3.65;;
29568;SDS011;16501;51.462;14.346;2023-07-20T01:54:33;5.00;;;3.42;;
29568;SDS011;16501;51.462;14.346;2023-07-20T01:56:59;8.02;;;3.78;;
29568;SDS011;16501;51.462;14.346;2023-07-20T01:59:24;5.78;;;4.13;;
29568;SDS011;16501;51.462;14.346;2023-07-20T02:01:49;6.03;;;4.10;;
29568;SDS011;16501;51.462;14.346;2023-07-20T02:04:14;6.82;;;3.95;;
29568;SDS011;16501;51.462;14.346;2023-07-20T02:06:40;5.60;;;3.72;;
29568;SDS011;16501;51.462;14.346;2023-07-20T02:09:05;7.60;;;4.80;;
29568;SDS011;16501;51.462;14.346;2023-07-20T02:11:32;8.20;;;4.10;;
29568;SDS011;16501;51.462;14.346;2023-07-20T02:13:57;5.95;;;4.20;;
29568;SDS011;16501;51.462;14.346;2023-07-20T02:16:23;4.95;;;3.67;;
29568;SDS011;16501;51.462;14.346;2023-07-20T02:18:48;6.20;;;3.80;;
29568;SDS011;16501;51.462;14.346;2023-07-20T02:21:13;8.68;;;4.55;;
29568;SDS011;16501;51.462;14.346;2023-07-20T02:23:38;7.60;;;3.58;;
29568;SDS011;16501;51.462;14.346;2023-07-20T02:26:04;4.82;;;3.53;;
29568;SDS011;16501;51.462;14.346;2023-07-20T02:28:29;5.30;;;3.85;;
29568;SDS011;16501;51.462;14.346;2023-07-20T02:30:54;4.43;;;3.92;;
29568;SDS011;16501;51.462;14.346;2023-07-20T02:33:19;8.85;;;3.97;;
29568;SDS011;16501;51.462;14.346;2023-07-20T02:35:45;7.00;;;4.13;;
29568;SDS011;16501;51.462;14.346;2023-07-20T02:38:11;5.53;;;3.85;;
29568;SDS011;16501;51.462;14.346;2023-07-20T02:40:36;7.97;;;5.00;;
29568;SDS011;16501;51.462;14.346;2023-07-20T02:43:01;6.60;;;3.80;;
29568;SDS011;16501;51.462;14.346;2023-07-20T02:45:26;4.82;;;4.10;;
29568;SDS011;16501;51.462;14.346;2023-07-20T02:47:51;9.85;;;4.18;;
29568;SDS011;16501;51.462;14.346;2023-07-20T02:50:17;6.05;;;3.70;;
29568;SDS011;16501;51.462;14.346;2023-07-20T02:52:42;5.60;;;3.15;;
29568;SDS011;16501;51.462;14.346;2023-07-20T02:55:07;4.55;;;3.47;;
29568;SDS011;16501;51.462;14.346;2023-07-20T02:57:33;5.85;;;3.70;;
29568;SDS011;16501;51.462;14.346;2023-07-20T02:59:58;6.32;;;3.40;;
29568;SDS011;16501;51.462;14.346;2023-07-20T03:02:23;4.82;;;3.72;;
29568;SDS011;16501;51.462;14.346;2023-07-20T03:04:50;6.15;;;3.97;;
29568;SDS011;16501;51.462;14.346;2023-07-20T03:07:15;6.28;;;3.58;;
29568;SDS011;16501;51.462;14.346;2023-07-20T03:09:40;3.90;;;3.17;;
29568;SDS011;16501;51.462;14.346;2023-07-20T03:12:06;5.30;;;3.83;;
29568;SDS011;16501;51.462;14.346;2023-07-20T03:14:31;8.85;;;3.40;;
29568;SDS011;16501;51.462;14.346;2023-07-20T03:16:57;5.15;;;3.88;;
29568;SDS011;16501;51.462;14.346;2023-07-20T03:19:22;5.85;;;3.38;;
29568;SDS011;16501;51.462;14.346;2023-07-20T03:21:47;4.75;;;3.45;;
29568;SDS011;16501;51.462;14.346;2023-07-20T03:24:13;4.07;;;3.25;;
29568;SDS011;16501;51.462;14.346;2023-07-20T03:26:38;5.70;;;3.67;;
29568;SDS011;16501;51.462;14.346;2023-07-20T03:29:03;7.50;;;3.40;;
29568;SDS011;16501;51.462;14.346;2023-07-20T03:31:29;4.05;;;3.08;;
29568;SDS011;16501;51.462;14.346;2023-07-20T03:33:55;4.03;;;3.50;;
29568;SDS011;16501;51.462;14.346;2023-07-20T03:36:20;8.10;;;3.53;;
29568;SDS011;16501;51.462;14.346;2023-07-20T03:38:45;5.63;;;3.70;;
29568;SDS011;16501;51.462;14.346;2023-07-20T03:41:10;4.05;;;3.65;;
29568;SDS011;16501;51.462;14.346;2023-07-20T03:43:36;4.88;;;4.18;;
29568;SDS011;16501;51.462;14.346;2023-07-20T03:46:01;5.80;;;3.63;;
29568;SDS011;16501;51.462;14.346;2023-07-20T03:48:31;5.22;;;4.50;;
29568;SDS011;16501;51.462;14.346;2023-07-20T03:50:56;6.43;;;3.47;;
29568;SDS011;16501;51.462;14.346;2023-07-20T03:53:21;5.15;;;3.63;;
29568;SDS011;16501;51.462;14.346;2023-07-20T03:55:47;5.38;;;4.10;;
29568;SDS011;16501;51.462;14.346;2023-07-20T03:58:14;10.23;;;3.90;;
29568;SDS011;16501;51.462;14.346;2023-07-20T04:00:39;4.40;;;4.00;;
29568;SDS011;16501;51.462;14.346;2023-07-20T04:03:08;5.78;;;3.70;;
29568;SDS011;16501;51.462;14.346;2023-07-20T04:05:33;5.13;;;3.58;;
29568;SDS011;16501;51.462;14.346;2023-07-20T04:07:58;5.07;;;3.78;;
29568;SDS011;16501;51.462;14.346;2023-07-20T04:10:23;6.40;;;3.75;;
29568;SDS011;16501;51.462;14.346;2023-07-20T04:12:49;4.57;;;3.50;;
29568;SDS011;16501;51.462;14.346;2023-07-20T04:15:14;4.55;;;3.55;;
29568;SDS011;16501;51.462;14.346;2023-07-20T04:17:42;5.63;;;3.95;;
29568;SDS011;16501;51.462;14.346;2023-07-20T04:20:08;6.93;;;3.85;;
29568;SDS011;16501;51.462;14.346;2023-07-20T04:22:33;4.40;;;4.00;;
29568;SDS011;16501;51.462;14.346;2023-07-20T04:24:59;7.50;;;4.22;;
29568;SDS011;16501;51.462;14.346;2023-07-20T04:27:24;4.85;;;3.90;;
29568;SDS011;16501;51.462;14.346;2023-07-20T04:29:49;5.00;;;4.43;;
29568;SDS011;16501;51.462;14.346;2023-07-20T04:32:15;4.80;;;4.30;;
29568;SDS011;16501;51.462;14.346;2023-07-20T04:34:40;6.95;;;4.53;;
29568;SDS011;16501;51.462;14.346;2023-07-20T04:37:06;6.45;;;4.85;;
29568;SDS011;16501;51.462;14.346;2023-07-20T04:39:31;7.55;;;4.18;;
29568;SDS011;16501;51.462;14.346;2023-07-20T04:41:57;8.50;;;4.88;;
29568;SDS011;16501;51.462;14.346;2023-07-20T04:44:22;7.07;;;4.90;;
29568;SDS011;16501;51.462;14.346;2023-07-20T04:46:48;6.68;;;5.20;;
29568;SDS011;16501;51.462;14.346;2023-07-20T04:49:13;9.85;;;4.90;;
29568;SDS011;16501;51.462;14.346;2023-07-20T04:51:39;7.53;;;5.32;;
29568;SDS011;16501;51.462;14.346;2023-07-20T04:54:04;7.25;;;5.32;;
29568;SDS011;16501;51.462;14.346;2023-07-20T04:56:29;10.45;;;5.57;;
29568;SDS011;16501;51.462;14.346;2023-07-20T04:58:54;7.22;;;6.28;;
29568;SDS011;16501;51.462;14.346;2023-07-20T05:01:20;9.18;;;5.53;;
29568;SDS011;16501;51.462;14.346;2023-07-20T05:03:45;9.20;;;5.82;;
29568;SDS011;16501;51.462;14.346;2023-07-20T05:06:10;9.52;;;6.55;;
29568;SDS011;16501;51.462;14.346;2023-07-20T05:08:35;7.43;;;6.18;;
29568;SDS011;16501;51.462;14.346;2023-07-20T05:11:01;7.30;;;6.60;;
29568;SDS011;16501;51.462;14.346;2023-07-20T05:13:26;10.18;;;7.80;;
29568;SDS011;16501;51.462;14.346;2023-07-20T05:15:52;8.75;;;7.80;;
29568;SDS011;16501;51.462;14.346;2023-07-20T05:18:18;16.60;;;8.52;;
29568;SDS011;16501;51.462;14.346;2023-07-20T05:20:45;8.55;;;7.45;;
29568;SDS011;16501;51.462;14.346;2023-07-20T05:23:13;8.82;;;7.07;;
29568;SDS011;16501;51.462;14.346;2023-07-20T05:25:39;11.98;;;7.75;;
29568;SDS011;16501;51.462;14.346;2023-07-20T05:28:04;9.90;;;7.30;;
29568;SDS011;16501;51.462;14.346;2023-07-20T05:30:29;7.22;;;6.53;;
29568;SDS011;16501;51.462;14.346;2023-07-20T05:32:55;10.13;;;7.28;;
29568;SDS011;16501;51.462;14.346;2023-07-20T05:35:20;7.95;;;6.95;;
29568;SDS011;16501;51.462;14.346;2023-07-20T05:37:45;10.73;;;7.97;;
29568;SDS011;16501;51.462;14.346;2023-07-20T05:40:11;9.65;;;6.25;;
29568;SDS011;16501;51.462;14.346;2023-07-20T05:42:40;9.93;;;7.00;;
29568;SDS011;16501;51.462;14.346;2023-07-20T05:45:05;11.25;;;7.93;;
29568;SDS011;16501;51.462;14.346;2023-07-20T05:47:32;11.23;;;7.00;;
29568;SDS011;16501;51.462;14.346;2023-07-20T05:49:57;11.00;;;7.50;;
29568;SDS011;16501;51.462;14.346;2023-07-20T05:52:22;10.43;;;7.60;;
29568;SDS011;16501;51.462;14.346;2023-07-20T05:54:48;11.13;;;7.05;;
29568;SDS011;16501;51.462;14.346;2023-07-20T05:57:13;14.35;;;11.30;;
29568;SDS011;16501;51.462;14.346;2023-07-20T05:59:38;11.05;;;7.30;;
29568;SDS011;16501;51.462;14.346;2023-07-20T06:02:05;11.05;;;6.28;;
29568;SDS011;16501;51.462;14.346;2023-07-20T06:04:31;7.78;;;6.93;;
29568;SDS011;16501;51.462;14.346;2023-07-20T06:06:56;9.30;;;7.03;;
29568;SDS011;16501;51.462;14.346;2023-07-20T06:09:21;18.55;;;7.72;;
29568;SDS011;16501;51.462;14.346;2023-07-20T06:11:46;11.35;;;6.75;;
29568;SDS011;16501;51.462;14.346;2023-07-20T06:14:12;10.45;;;6.70;;
29568;SDS011;16501;51.462;14.346;2023-07-20T06:16:37;7.88;;;7.03;;
29568;SDS011;16501;51.462;14.346;2023-07-20T06:19:02;12.30;;;7.03;;
29568;SDS011;16501;51.462;14.346;2023-07-20T06:21:27;9.52;;;6.68;;
29568;SDS011;16501;51.462;14.346;2023-07-20T06:23:53;8.50;;;7.35;;
29568;SDS011;16501;51.462;14.346;2023-07-20T06:26:18;7.72;;;6.40;;
29568;SDS011;16501;51.462;14.346;2023-07-20T06:28:44;11.88;;;6.40;;
29568;SDS011;16501;51.462;14.346;2023-07-20T06:31:10;13.02;;;6.30;;
29568;SDS011;16501;51.462;14.346;2023-07-20T06:33:35;6.88;;;6.18;;
29568;SDS011;16501;51.462;14.346;2023-07-20T06:36:01;7.60;;;5.60;;
29568;SDS011;16501;51.462;14.346;2023-07-20T06:38:26;7.82;;;6.03;;
29568;SDS011;16501;51.462;14.346;2023-07-20T06:40:51;8.52;;;5.95;;
29568;SDS011;16501;51.462;14.346;2023-07-20T06:43:17;8.32;;;5.63;;
29568;SDS011;16501;51.462;14.346;2023-07-20T06:45:43;6.22;;;5.65;;
29568;SDS011;16501;51.462;14.346;2023-07-20T06:48:08;9.27;;;5.80;;
29568;SDS011;16501;51.462;14.346;2023-07-20T06:50:33;10.27;;;5.80;;
29568;SDS011;16501;51.462;14.346;2023-07-20T06:52:59;8.75;;;4.95;;
29568;SDS011;16501;51.462;14.346;2023-07-20T06:55:25;11.43;;;5.00;;
29568;SDS011;16501;51.462;14.346;2023-07-20T06:57:50;5.45;;;4.93;;
29568;SDS011;16501;51.462;14.346;2023-07-20T07:00:16;6.35;;;5.05;;
29568;SDS011;16501;51.462;14.346;2023-07-20T07:02:41;8.45;;;5.32;;
29568;SDS011;16501;51.462;14.346;2023-07-20T07:05:07;5.82;;;4.93;;
29568;SDS011;16501;51.462;14.346;2023-07-20T07:07:32;5.53;;;4.95;;
29568;SDS011;16501;51.462;14.346;2023-07-20T07:09:57;8.45;;;5.53;;
29568;SDS011;16501;51.462;14.346;2023-07-20T07:12:23;7.85;;;4.97;;
29568;SDS011;16501;51.462;14.346;2023-07-20T07:14:48;5.25;;;4.57;;
29568;SDS011;16501;51.462;14.346;2023-07-20T07:17:13;6.45;;;4.65;;
29568;SDS011;16501;51.462;14.346;2023-07-20T07:19:39;8.93;;;3.83;;
29568;SDS011;16501;51.462;14.346;2023-07-20T07:22:05;5.78;;;4.03;;
29568;SDS011;16501;51.462;14.346;2023-07-20T07:24:30;4.43;;;3.88;;
29568;SDS011;16501;51.462;14.346;2023-07-20T07:26:59;8.50;;;4.00;;
29568;SDS011;16501;51.462;14.346;2023-07-20T07:29:24;5.45;;;4.65;;
29568;SDS011;16501;51.462;14.346;2023-07-20T07:31:50;5.43;;;3.55;;
29568;SDS011;16501;51.462;14.346;2023-07-20T07:34:15;7.53;;;3.63;;
29568;SDS011;16501;51.462;14.346;2023-07-20T07:36:41;4.63;;;4.03;;
29568;SDS011;16501;51.462;14.346;2023-07-20T07:39:06;11.52;;;3.30;;
29568;SDS011;16501;51.462;14.346;2023-07-20T07:41:31;6.15;;;3.65;;
29568;SDS011;16501;51.462;14.346;2023-07-20T07:43:56;6.75;;;3.28;;
29568;SDS011;16501;51.462;14.346;2023-07-20T07:46:21;5.38;;;2.53;;
29568;SDS011;16501;51.462;14.346;2023-07-20T07:48:47;6.47;;;2.78;;
29568;SDS011;16501;51.462;14.346;2023-07-20T07:51:12;5.05;;;2.85;;
29568;SDS011;16501;51.462;14.346;2023-07-20T07:53:38;4.28;;;2.80;;
29568;SDS011;16501;51.462;14.346;2023-07-20T07:56:06;32.40;;;11.25;;
29568;SDS011;16501;51.462;14.346;2023-07-20T07:58:32;5.20;;;2.38;;
29568;SDS011;16501;51.462;14.346;2023-07-20T08:00:57;9.40;;;2.60;;
29568;SDS011;16501;51.462;14.346;2023-07-20T08:03:22;4.63;;;2.70;;
29568;SDS011;16501;51.462;14.346;2023-07-20T08:05:49;3.55;;;2.58;;
29568;SDS011;16501;51.462;14.346;2023-07-20T08:08:14;3.83;;;2.38;;
29568;SDS011;16501;51.462;14.346;2023-07-20T08:10:39;3.30;;;2.05;;
29568;SDS011;16501;51.462;14.346;2023-07-20T08:13:05;3.20;;;2.20;;
29568;SDS011;16501;51.462;14.346;2023-07-20T08:15:30;2.58;;;2.25;;
29568;SDS011;16501;51.462;14.346;2023-07-20T08:17:55;2.38;;;2.17;;
29568;SDS011;16501;51.462;14.346;2023-07-20T08:20:21;3.53;;;2.03;;
29568;SDS011;16501;51.462;14.346;2023-07-20T08:22:51;3.30;;;1.92;;
29568;SDS011;16501;51.462;14.346;2023-07-20T08:25:17;4.07;;;2.03;;
29568;SDS011;16501;51.462;14.346;2023-07-20T08:27:42;2.88;;;1.48;;
29568;SDS011;16501;51.462;14.346;2023-07-20T08:30:09;1.70;;;1.60;;
29568;SDS011;16501;51.462;14.346;2023-07-20T08:32:34;2.38;;;1.63;;
29568;SDS011;16501;51.462;14.346;2023-07-20T08:35:00;2.35;;;1.42;;
29568;SDS011;16501;51.462;14.346;2023-07-20T08:37:25;1.73;;;1.30;;
29568;SDS011;16501;51.462;14.346;2023-07-20T08:39:51;1.60;;;1.50;;
29568;SDS011;16501;51.462;14.346;2023-07-20T08:42:16;4.68;;;1.40;;
29568;SDS011;16501;51.462;14.346;2023-07-20T08:44:42;2.60;;;1.92;;
29568;SDS011;16501;51.462;14.346;2023-07-20T08:47:09;1.33;;;1.30;;
29568;SDS011;16501;51.462;14.346;2023-07-20T08:49:37;4.65;;;1.40;;
29568;SDS011;16501;51.462;14.346;2023-07-20T08:52:06;2.22;;;1.70;;
29568;SDS011;16501;51.462;14.346;2023-07-20T08:54:32;1.42;;;1.33;;
29568;SDS011;16501;51.462;14.346;2023-07-20T08:56:59;2.55;;;1.60;;
29568;SDS011;16501;51.462;14.346;2023-07-20T08:59:26;1.85;;;1.58;;
29568;SDS011;16501;51.462;14.346;2023-07-20T09:01:53;2.38;;;1.25;;
29568;SDS011;16501;51.462;14.346;2023-07-20T09:04:21;2.80;;;1.92;;
29568;SDS011;16501;51.462;14.346;2023-07-20T09:06:47;1.27;;;1.23;;
29568;SDS011;16501;51.462;14.346;2023-07-20T09:09:14;2.17;;;1.60;;
29568;SDS011;16501;51.462;14.346;2023-07-20T09:11:40;1.60;;;1.50;;
29568;SDS011;16501;51.462;14.346;2023-07-20T09:14:05;1.80;;;1.70;;
29568;SDS011;16501;51.462;14.346;2023-07-20T09:16:32;1.42;;;1.33;;
29568;SDS011;16501;51.462;14.346;2023-07-20T09:18:57;1.90;;;1.80;;
29568;SDS011;16501;51.462;14.346;2023-07-20T09:21:23;2.10;;;1.85;;
29568;SDS011;16501;51.462;14.346;2023-07-20T09:23:49;2.15;;;2.05;;
29568;SDS011;16501;51.462;14.346;2023-07-20T09:26:18;1.55;;;1.45;;
29568;SDS011;16501;51.462;14.346;2023-07-20T09:28:44;1.83;;;1.70;;
29568;SDS011;16501;51.462;14.346;2023-07-20T09:31:17;2.53;;;1.60;;
29568;SDS011;16501;51.462;14.346;2023-07-20T09:33:43;2.30;;;1.45;;
29568;SDS011;16501;51.462;14.346;2023-07-20T09:36:09;1.52;;;1.27;;
29568;SDS011;16501;51.462;14.346;2023-07-20T09:38:36;2.95;;;1.75;;
29568;SDS011;16501;51.462;14.346;2023-07-20T09:41:01;1.63;;;1.52;;
29568;SDS011;16501;51.462;14.346;2023-07-20T09:43:30;1.92;;;1.42;;
29568;SDS011;16501;51.462;14.346;2023-07-20T09:46:00;2.78;;;1.73;;
29568;SDS011;16501;51.462;14.346;2023-07-20T09:48:25;1.35;;;1.25;;
29568;SDS011;16501;51.462;14.346;2023-07-20T09:50:51;2.38;;;1.50;;
29568;SDS011;16501;51.462;14.346;2023-07-20T09:53:18;2.97;;;1.55;;
29568;SDS011;16501;51.462;14.346;2023-07-20T09:55:44;1.48;;;1.10;;
29568;SDS011;16501;51.462;14.346;2023-07-20T09:58:11;3.60;;;1.40;;
29568;SDS011;16501;51.462;14.346;2023-07-20T10:00:37;1.55;;;1.35;;
29568;SDS011;16501;51.462;14.346;2023-07-20T10:03:04;2.95;;;1.50;;
29568;SDS011;16501;51.462;14.346;2023-07-20T10:05:33;3.50;;;1.20;;
29568;SDS011;16501;51.462;14.346;2023-07-20T10:08:01;1.25;;;1.15;;
29568;SDS011;16501;51.462;14.346;2023-07-20T10:10:27;3.70;;;1.92;;
29568;SDS011;16501;51.462;14.346;2023-07-20T10:12:53;2.00;;;1.20;;
29568;SDS011;16501;51.462;14.346;2023-07-20T10:15:20;2.97;;;1.45;;
29568;SDS011;16501;51.462;14.346;2023-07-20T10:18:03;2.53;;;1.58;;
29568;SDS011;16501;51.462;14.346;2023-07-20T10:20:42;1.40;;;1.30;;
29568;SDS011;16501;51.462;14.346;2023-07-20T10:23:09;2.47;;;1.45;;
29568;SDS011;16501;51.462;14.346;2023-07-20T10:25:35;2.00;;;1.58;;
29568;SDS011;16501;51.462;14.346;2023-07-20T10:28:04;1.90;;;1.45;;
29568;SDS011;16501;51.462;14.346;2023-07-20T10:30:38;3.10;;;1.23;;
29568;SDS011;16501;51.462;14.346;2023-07-20T10:33:04;2.20;;;1.45;;
29568;SDS011;16501;51.462;14.346;2023-07-20T10:38:40;4.63;;;1.55;;
29568;SDS011;16501;51.462;14.346;2023-07-20T10:41:20;2.00;;;1.30;;
29568;SDS011;16501;51.462;14.346;2023-07-20T10:43:58;2.88;;;1.00;;
29568;SDS011;16501;51.462;14.346;2023-07-20T10:49:04;3.08;;;1.00;;
29568;SDS011;16501;51.462;14.346;2023-07-20T10:51:38;2.20;;;1.90;;
29568;SDS011;16501;51.462;14.346;2023-07-20T10:56:43;2.13;;;1.35;;
29568;SDS011;16501;51.462;14.346;2023-07-20T10:59:18;1.40;;;1.30;;
29568;SDS011;16501;51.462;14.346;2023-07-20T11:01:55;1.20;;;1.20;;
29568;SDS011;16501;51.462;14.346;2023-07-20T11:04:38;1.23;;;1.13;;
29568;SDS011;16501;51.462;14.346;2023-07-20T11:07:05;1.88;;;1.40;;
29568;SDS011;16501;51.462;14.346;2023-07-20T11:09:34;1.42;;;1.30;;
29568;SDS011;16501;51.462;14.346;2023-07-20T11:12:09;3.85;;;1.45;;
29568;SDS011;16501;51.462;14.346;2023-07-20T11:14:42;2.85;;;1.48;;
29568;SDS011;16501;51.462;14.346;2023-07-20T11:17:12;1.65;;;1.20;;
29568;SDS011;16501;51.462;14.346;2023-07-20T11:19:39;1.42;;;1.33;;
29568;SDS011;16501;51.462;14.346;2023-07-20T11:22:08;2.40;;;2.30;;
29568;SDS011;16501;51.462;14.346;2023-07-20T11:24:36;1.35;;;1.35;;
29568;SDS011;16501;51.462;14.346;2023-07-20T11:27:03;1.77;;;1.65;;
29568;SDS011;16501;51.462;14.346;2023-07-20T11:29:29;4.32;;;1.55;;
29568;SDS011;16501;51.462;14.346;2023-07-20T11:31:54;2.33;;;1.40;;
29568;SDS011;16501;51.462;14.346;2023-07-20T11:34:21;2.65;;;1.20;;
29568;SDS011;16501;51.462;14.346;2023-07-20T11:36:47;1.65;;;1.30;;
29568;SDS011;16501;51.462;14.346;2023-07-20T11:39:21;2.40;;;1.30;;
29568;SDS011;16501;51.462;14.346;2023-07-20T11:41:53;1.60;;;1.17;;
29568;SDS011;16501;51.462;14.346;2023-07-20T11:44:20;2.13;;;1.20;;
29568;SDS011;16501;51.462;14.346;2023-07-20T11:47:07;4.32;;;1.63;;
29568;SDS011;16501;51.462;14.346;2023-07-20T11:49:37;1.67;;;1.38;;
29568;SDS011;16501;51.462;14.346;2023-07-20T11:52:07;1.33;;;1.27;;
29568;SDS011;16501;51.462;14.346;2023-07-20T11:54:34;1.48;;;1.38;;
29568;SDS011;16501;51.462;14.346;2023-07-20T11:57:02;1.20;;;0.93;;
29568;SDS011;16501;51.462;14.346;2023-07-20T11:59:27;1.52;;;1.42;;
29568;SDS011;16501;51.462;14.346;2023-07-20T12:01:53;2.60;;;1.27;;
29568;SDS011;16501;51.462;14.346;2023-07-20T12:04:18;1.17;;;1.10;;
29568;SDS011;16501;51.462;14.346;2023-07-20T12:06:45;2.50;;;1.10;;
29568;SDS011;16501;51.462;14.346;2023-07-20T12:09:13;1.08;;;1.08;;
29568;SDS011;16501;51.462;14.346;2023-07-20T12:11:39;1.20;;;1.00;;
29568;SDS011;16501;51.462;14.346;2023-07-20T12:14:08;2.83;;;1.00;;
29568;SDS011;16501;51.462;14.346;2023-07-20T12:16:35;2.15;;;1.20;;
29568;SDS011;16501;51.462;14.346;2023-07-20T12:19:04;1.05;;;1.05;;
29568;SDS011;16501;51.462;14.346;2023-07-20T12:21:32;1.20;;;0.93;;
29568;SDS011;16501;51.462;14.346;2023-07-20T12:23:59;0.75;;;0.75;;
29568;SDS011;16501;51.462;14.346;2023-07-20T12:26:25;2.72;;;1.00;;
29568;SDS011;16501;51.462;14.346;2023-07-20T12:28:51;0.98;;;0.98;;
29568;SDS011;16501;51.462;14.346;2023-07-20T12:31:17;1.20;;;1.10;;
29568;SDS011;16501;51.462;14.346;2023-07-20T12:33:43;1.17;;;0.93;;
29568;SDS011;16501;51.462;14.346;2023-07-20T12:36:08;1.98;;;0.93;;
29568;SDS011;16501;51.462;14.346;2023-07-20T12:38:34;1.33;;;0.93;;
29568;SDS011;16501;51.462;14.346;2023-07-20T12:41:00;2.63;;;0.90;;
29568;SDS011;16501;51.462;14.346;2023-07-20T12:43:26;0.90;;;0.90;;
29568;SDS011;16501;51.462;14.346;2023-07-20T12:45:52;0.93;;;0.85;;
29568;SDS011;16501;51.462;14.346;2023-07-20T12:48:17;1.40;;;1.30;;
29568;SDS011;16501;51.462;14.346;2023-07-20T12:50:42;1.23;;;0.90;;
29568;SDS011;16501;51.462;14.346;2023-07-20T12:53:08;2.42;;;1.20;;
29568;SDS011;16501;51.462;14.346;2023-07-20T12:55:33;3.22;;;1.10;;
29568;SDS011;16501;51.462;14.346;2023-07-20T12:57:58;2.53;;;1.52;;
29568;SDS011;16501;51.462;14.346;2023-07-20T13:00:23;1.48;;;1.00;;
29568;SDS011;16501;51.462;14.346;2023-07-20T13:02:49;3.08;;;1.10;;
29568;SDS011;16501;51.462;14.346;2023-07-20T13:05:15;2.78;;;1.00;;
29568;SDS011;16501;51.462;14.346;2023-07-20T13:07:40;3.88;;;1.17;;
29568;SDS011;16501;51.462;14.346;2023-07-20T13:10:06;5.32;;;1.45;;
29568;SDS011;16501;51.462;14.346;2023-07-20T13:12:33;3.63;;;1.45;;
29568;SDS011;16501;51.462;14.346;2023-07-20T13:15:00;2.30;;;1.33;;
29568;SDS011;16501;51.462;14.346;2023-07-20T13:17:27;2.97;;;1.60;;
29568;SDS011;16501;51.462;14.346;2023-07-20T13:19:52;4.00;;;1.38;;
29568;SDS011;16501;51.462;14.346;2023-07-20T13:22:18;2.65;;;1.45;;
29568;SDS011;16501;51.462;14.346;2023-07-20T13:24:44;3.10;;;1.55;;
29568;SDS011;16501;51.462;14.346;2023-07-20T13:27:10;2.50;;;1.58;;
29568;SDS011;16501;51.462;14.346;2023-07-20T13:29:35;2.83;;;1.50;;
29568;SDS011;16501;51.462;14.346;2023-07-20T13:32:01;5.25;;;1.63;;
29568;SDS011;16501;51.462;14.346;2023-07-20T13:34:29;3.67;;;2.65;;
29568;SDS011;16501;51.462;14.346;2023-07-20T13:36:54;4.63;;;1.70;;
29568;SDS011;16501;51.462;14.346;2023-07-20T13:39:19;1.75;;;1.65;;
29568;SDS011;16501;51.462;14.346;2023-07-20T13:41:45;3.92;;;1.92;;
29568;SDS011;16501;51.462;14.346;2023-07-20T13:44:10;2.65;;;2.45;;
29568;SDS011;16501;51.462;14.346;2023-07-20T13:46:35;1.80;;;1.70;;
29568;SDS011;16501;51.462;14.346;2023-07-20T13:49:01;5.10;;;1.98;;
29568;SDS011;16501;51.462;14.346;2023-07-20T13:51:26;2.40;;;2.10;;
29568;SDS011;16501;51.462;14.346;2023-07-20T13:53:51;3.85;;;1.63;;
29568;SDS011;16501;51.462;14.346;2023-07-20T13:56:16;2.78;;;2.55;;
29568;SDS011;16501;51.462;14.346;2023-07-20T13:58:42;3.92;;;2.17;;
29568;SDS011;16501;51.462;14.346;2023-07-20T14:01:07;4.65;;;2.00;;
29568;SDS011;16501;51.462;14.346;2023-07-20T14:03:32;2.05;;;1.63;;
29568;SDS011;16501;51.462;14.346;2023-07-20T14:05:57;2.97;;;1.70;;
29568;SDS011;16501;51.462;14.346;2023-07-20T14:08:23;1.88;;;1.63;;
29568;SDS011;16501;51.462;14.346;2023-07-20T14:10:48;2.47;;;1.77;;
29568;SDS011;16501;51.462;14.346;2023-07-20T14:13:13;4.60;;;2.00;;
29568;SDS011;16501;51.462;14.346;2023-07-20T14:15:39;2.78;;;1.85;;
29568;SDS011;16501;51.462;14.346;2023-07-20T14:18:04;2.67;;;1.80;;
29568;SDS011;16501;51.462;14.346;2023-07-20T14:20:30;2.42;;;2.10;;
29568;SDS011;16501;51.462;14.346;2023-07-20T14:22:55;2.45;;;2.25;;
29568;SDS011;16501;51.462;14.346;2023-07-20T14:25:20;2.60;;;1.52;;
29568;SDS011;16501;51.462;14.346;2023-07-20T14:27:45;2.00;;;1.90;;
29568;SDS011;16501;51.462;14.346;2023-07-20T14:30:11;2.30;;;2.13;;
29568;SDS011;16501;51.462;14.346;2023-07-20T14:32:38;1.98;;;1.88;;
29568;SDS011;16501;51.462;14.346;2023-07-20T14:35:03;2.97;;;1.83;;
29568;SDS011;16501;51.462;14.346;2023-07-20T14:37:29;3.63;;;1.80;;
29568;SDS011;16501;51.462;14.346;2023-07-20T14:39:54;3.22;;;1.90;;
29568;SDS011;16501;51.462;14.346;2023-07-20T14:42:19;2.95;;;1.80;;